sensor_id;sensor_type;location;lat;lon;timestamp;pressure;altitude;pressure_sealevel;temperature
29701;BMP280;57917;51.380;-0.176;2023-08-06T00:02:50;100877.19;;;13.38
29701;BMP280;57917;51.380;-0.176;2023-08-06T00:08:40;100879.41;;;13.31
29701;BMP280;57917;51.380;-0.176;2023-08-06T00:14:37;100883.78;;;13.22
29701;BMP280;57917;51.380;-0.176;2023-08-06T00:20:24;100890.19;;;13.21
29701;BMP280;57917;51.380;-0.176;2023-08-06T00:26:11;100895.50;;;13.21
29701;BMP280;57917;51.380;-0.176;2023-08-06T00:31:58;100902.97;;;13.19
29701;BMP280;57917;51.380;-0.176;2023-08-06T00:37:45;100926.47;;;13.12
29701;BMP280;57917;51.380;-0.176;2023-08-06T00:43:32;100947.09;;;13.20
29701;BMP280;57917;51.380;-0.176;2023-08-06T00:49:19;100947.22;;;13.10
29701;BMP280;57917;51.380;-0.176;2023-08-06T00:55:06;100965.59;;;13.06
29701;BMP280;57917;51.380;-0.176;2023-08-06T01:00:52;100966.06;;;13.08
29701;BMP280;57917;51.380;-0.176;2023-08-06T01:06:43;100961.16;;;13.02
29701;BMP280;57917;51.380;-0.176;2023-08-06T01:18:43;100990.91;;;13.22
29701;BMP280;57917;51.380;-0.176;2023-08-06T01:24:33;100991.19;;;13.21
29701;BMP280;57917;51.380;-0.176;2023-08-06T01:30:24;101003.06;;;13.28
29701;BMP280;57917;51.380;-0.176;2023-08-06T01:36:12;101013.75;;;13.23
29701;BMP280;57917;51.380;-0.176;2023-08-06T01:41:59;101022.66;;;13.14
29701;BMP280;57917;51.380;-0.176;2023-08-06T01:47:51;101029.13;;;13.03
29701;BMP280;57917;51.380;-0.176;2023-08-06T01:53:38;101039.94;;;12.88
29701;BMP280;57917;51.380;-0.176;2023-08-06T01:59:24;101046.06;;;12.88
29701;BMP280;57917;51.380;-0.176;2023-08-06T02:05:11;101043.34;;;12.93
29701;BMP280;57917;51.380;-0.176;2023-08-06T02:11:01;101047.94;;;12.82
29701;BMP280;57917;51.380;-0.176;2023-08-06T02:16:50;101045.56;;;12.81
29701;BMP280;57917;51.380;-0.176;2023-08-06T02:22:37;101050.66;;;12.77
29701;BMP280;57917;51.380;-0.176;2023-08-06T02:28:23;101046.97;;;12.73
29701;BMP280;57917;51.380;-0.176;2023-08-06T02:34:10;101058.91;;;12.47
29701;BMP280;57917;51.380;-0.176;2023-08-06T02:39:57;101068.31;;;12.63
29701;BMP280;57917;51.380;-0.176;2023-08-06T02:45:44;101060.91;;;12.60
29701;BMP280;57917;51.380;-0.176;2023-08-06T02:51:31;101060.31;;;12.68
29701;BMP280;57917;51.380;-0.176;2023-08-06T02:57:17;101063.63;;;12.50
29701;BMP280;57917;51.380;-0.176;2023-08-06T03:03:07;101073.63;;;12.92
29701;BMP280;57917;51.380;-0.176;2023-08-06T03:09:07;101072.06;;;12.57
29701;BMP280;57917;51.380;-0.176;2023-08-06T03:14:54;101075.16;;;12.74
29701;BMP280;57917;51.380;-0.176;2023-08-06T03:20:41;101076.41;;;12.77
29701;BMP280;57917;51.380;-0.176;2023-08-06T03:26:28;101077.81;;;12.69
29701;BMP280;57917;51.380;-0.176;2023-08-06T03:32:15;101073.53;;;12.73
29701;BMP280;57917;51.380;-0.176;2023-08-06T03:38:02;101073.56;;;12.68
29701;BMP280;57917;51.380;-0.176;2023-08-06T03:43:49;101082.69;;;12.57
29701;BMP280;57917;51.380;-0.176;2023-08-06T03:49:43;101083.16;;;12.31
29701;BMP280;57917;51.380;-0.176;2023-08-06T03:55:35;101090.56;;;12.34
29701;BMP280;57917;51.380;-0.176;2023-08-06T04:01:22;101097.25;;;12.21
29701;BMP280;57917;51.380;-0.176;2023-08-06T04:07:08;101100.66;;;12.32
29701;BMP280;57917;51.380;-0.176;2023-08-06T04:12:55;101108.47;;;12.18
29701;BMP280;57917;51.380;-0.176;2023-08-06T04:18:42;101109.47;;;12.27
29701;BMP280;57917;51.380;-0.176;2023-08-06T04:24:28;101118.28;;;12.18
29701;BMP280;57917;51.380;-0.176;2023-08-06T04:30:15;101125.72;;;12.16
29701;BMP280;57917;51.380;-0.176;2023-08-06T04:36:02;101128.63;;;12.19
29701;BMP280;57917;51.380;-0.176;2023-08-06T04:41:49;101136.31;;;12.21
29701;BMP280;57917;51.380;-0.176;2023-08-06T04:47:37;101141.06;;;12.24
29701;BMP280;57917;51.380;-0.176;2023-08-06T04:53:23;101153.47;;;12.38
29701;BMP280;57917;51.380;-0.176;2023-08-06T04:59:10;101153.75;;;12.32
29701;BMP280;57917;51.380;-0.176;2023-08-06T05:04:57;101155.84;;;12.40
29701;BMP280;57917;51.380;-0.176;2023-08-06T05:10:45;101155.75;;;12.50
29701;BMP280;57917;51.380;-0.176;2023-08-06T05:16:32;101166.59;;;12.63
29701;BMP280;57917;51.380;-0.176;2023-08-06T05:22:18;101179.69;;;13.74
29701;BMP280;57917;51.380;-0.176;2023-08-06T05:28:05;101159.94;;;15.05
29701;BMP280;57917;51.380;-0.176;2023-08-06T05:33:52;101155.09;;;16.10
29701;BMP280;57917;51.380;-0.176;2023-08-06T05:39:38;101149.47;;;16.56
29701;BMP280;57917;51.380;-0.176;2023-08-06T05:45:25;101151.44;;;16.95
29701;BMP280;57917;51.380;-0.176;2023-08-06T05:51:12;101147.91;;;17.64
29701;BMP280;57917;51.380;-0.176;2023-08-06T05:56:59;101161.44;;;17.59
29701;BMP280;57917;51.380;-0.176;2023-08-06T06:02:46;101169.41;;;15.92
29701;BMP280;57917;51.380;-0.176;2023-08-06T06:08:34;101183.53;;;15.25
29701;BMP280;57917;51.380;-0.176;2023-08-06T06:14:21;101211.69;;;14.67
29701;BMP280;57917;51.380;-0.176;2023-08-06T06:20:12;101219.06;;;14.19
29701;BMP280;57917;51.380;-0.176;2023-08-06T06:25:59;101230.53;;;14.15
29701;BMP280;57917;51.380;-0.176;2023-08-06T06:31:49;101239.66;;;14.09
29701;BMP280;57917;51.380;-0.176;2023-08-06T06:37:37;101239.72;;;14.04
29701;BMP280;57917;51.380;-0.176;2023-08-06T06:43:25;101244.16;;;14.13
29701;BMP280;57917;51.380;-0.176;2023-08-06T06:49:16;101249.69;;;14.17
29701;BMP280;57917;51.380;-0.176;2023-08-06T06:55:05;101247.03;;;13.93
29701;BMP280;57917;51.380;-0.176;2023-08-06T07:00:53;101264.53;;;14.23
29701;BMP280;57917;51.380;-0.176;2023-08-06T07:06:40;101272.47;;;14.28
29701;BMP280;57917;51.380;-0.176;2023-08-06T07:12:37;101265.66;;;14.17
29701;BMP280;57917;51.380;-0.176;2023-08-06T07:18:26;101279.34;;;14.53
29701;BMP280;57917;51.380;-0.176;2023-08-06T07:24:14;101262.78;;;14.93
29701;BMP280;57917;51.380;-0.176;2023-08-06T07:30:00;101277.44;;;15.09
29701;BMP280;57917;51.380;-0.176;2023-08-06T07:35:47;101284.38;;;14.91
29701;BMP280;57917;51.380;-0.176;2023-08-06T07:41:35;101286.81;;;15.06
29701;BMP280;57917;51.380;-0.176;2023-08-06T07:47:22;101287.94;;;14.87
29701;BMP280;57917;51.380;-0.176;2023-08-06T07:53:09;101277.59;;;15.31
29701;BMP280;57917;51.380;-0.176;2023-08-06T07:58:56;101286.09;;;16.19
29701;BMP280;57917;51.380;-0.176;2023-08-06T08:04:43;101268.06;;;16.82
29701;BMP280;57917;51.380;-0.176;2023-08-06T08:10:35;101255.09;;;16.89
29701;BMP280;57917;51.380;-0.176;2023-08-06T08:16:22;101259.28;;;17.04
29701;BMP280;57917;51.380;-0.176;2023-08-06T08:22:09;101263.66;;;17.61
29701;BMP280;57917;51.380;-0.176;2023-08-06T08:27:56;101276.97;;;17.91
29701;BMP280;57917;51.380;-0.176;2023-08-06T08:33:43;101267.88;;;18.69
29701;BMP280;57917;51.380;-0.176;2023-08-06T08:39:29;101266.91;;;18.82
29701;BMP280;57917;51.380;-0.176;2023-08-06T08:45:17;101269.31;;;18.75
29701;BMP280;57917;51.380;-0.176;2023-08-06T08:51:10;101265.84;;;19.29
29701;BMP280;57917;51.380;-0.176;2023-08-06T08:56:58;101260.97;;;19.23
29701;BMP280;57917;51.380;-0.176;2023-08-06T09:02:45;101266.91;;;18.91
29701;BMP280;57917;51.380;-0.176;2023-08-06T09:08:38;101292.66;;;18.83
29701;BMP280;57917;51.380;-0.176;2023-08-06T09:14:34;101290.25;;;18.82
29701;BMP280;57917;51.380;-0.176;2023-08-06T09:20:57;101294.41;;;18.62
29701;BMP280;57917;51.380;-0.176;2023-08-06T09:26:45;101297.53;;;18.30
29701;BMP280;57917;51.380;-0.176;2023-08-06T09:32:54;101295.47;;;18.87
29701;BMP280;57917;51.380;-0.176;2023-08-06T09:38:41;101294.09;;;19.35
29701;BMP280;57917;51.380;-0.176;2023-08-06T09:44:31;101302.06;;;19.52
29701;BMP280;57917;51.380;-0.176;2023-08-06T09:50:19;101298.44;;;19.11
29701;BMP280;57917;51.380;-0.176;2023-08-06T09:56:07;101316.59;;;18.11
29701;BMP280;57917;51.380;-0.176;2023-08-06T10:01:56;101335.97;;;18.17
29701;BMP280;57917;51.380;-0.176;2023-08-06T10:07:44;101337.78;;;18.55
29701;BMP280;57917;51.380;-0.176;2023-08-06T10:13:33;101340.44;;;18.47
29701;BMP280;57917;51.380;-0.176;2023-08-06T10:19:27;101331.97;;;18.62
29701;BMP280;57917;51.380;-0.176;2023-08-06T10:25:18;101352.47;;;18.75
29701;BMP280;57917;51.380;-0.176;2023-08-06T10:31:06;101354.63;;;19.16
29701;BMP280;57917;51.380;-0.176;2023-08-06T10:36:54;101349.94;;;18.61
29701;BMP280;57917;51.380;-0.176;2023-08-06T10:42:41;101339.94;;;19.05
29701;BMP280;57917;51.380;-0.176;2023-08-06T10:48:36;101355.56;;;19.28
29701;BMP280;57917;51.380;-0.176;2023-08-06T10:54:23;101350.25;;;19.57
29701;BMP280;57917;51.380;-0.176;2023-08-06T11:00:10;101344.03;;;19.65
29701;BMP280;57917;51.380;-0.176;2023-08-06T11:06:03;101346.53;;;19.41
29701;BMP280;57917;51.380;-0.176;2023-08-06T11:11:50;101358.44;;;18.81
29701;BMP280;57917;51.380;-0.176;2023-08-06T11:17:39;101359.69;;;18.49
29701;BMP280;57917;51.380;-0.176;2023-08-06T11:23:29;101365.97;;;18.53
29701;BMP280;57917;51.380;-0.176;2023-08-06T11:29:24;101367.72;;;18.40
29701;BMP280;57917;51.380;-0.176;2023-08-06T11:35:22;101374.75;;;18.11
29701;BMP280;57917;51.380;-0.176;2023-08-06T11:41:11;101377.56;;;18.06
29701;BMP280;57917;51.380;-0.176;2023-08-06T11:47:02;101362.72;;;18.00
29701;BMP280;57917;51.380;-0.176;2023-08-06T11:52:59;101373.34;;;18.22
29701;BMP280;57917;51.380;-0.176;2023-08-06T11:58:49;101375.44;;;18.42
29701;BMP280;57917;51.380;-0.176;2023-08-06T12:04:58;101379.09;;;18.46
29701;BMP280;57917;51.380;-0.176;2023-08-06T12:10:46;101368.34;;;18.37
29701;BMP280;57917;51.380;-0.176;2023-08-06T12:16:40;101364.44;;;19.20
29701;BMP280;57917;51.380;-0.176;2023-08-06T12:22:27;101357.50;;;19.57
29701;BMP280;57917;51.380;-0.176;2023-08-06T12:28:15;101362.59;;;20.57
29701;BMP280;57917;51.380;-0.176;2023-08-06T12:34:04;101367.09;;;20.86
29701;BMP280;57917;51.380;-0.176;2023-08-06T12:39:51;101364.59;;;20.81
29701;BMP280;57917;51.380;-0.176;2023-08-06T12:45:38;101372.78;;;20.72
29701;BMP280;57917;51.380;-0.176;2023-08-06T12:51:37;101356.09;;;20.79
29701;BMP280;57917;51.380;-0.176;2023-08-06T12:57:28;101349.50;;;19.77
29701;BMP280;57917;51.380;-0.176;2023-08-06T13:03:38;101345.13;;;19.73
29701;BMP280;57917;51.380;-0.176;2023-08-06T13:09:25;101366.44;;;20.27
29701;BMP280;57917;51.380;-0.176;2023-08-06T13:15:24;101365.81;;;19.81
29701;BMP280;57917;51.380;-0.176;2023-08-06T13:27:41;101373.34;;;21.10
29701;BMP280;57917;51.380;-0.176;2023-08-06T13:33:30;101360.31;;;20.68
29701;BMP280;57917;51.380;-0.176;2023-08-06T13:39:37;101361.25;;;19.73
29701;BMP280;57917;51.380;-0.176;2023-08-06T13:45:24;101377.97;;;19.32
29701;BMP280;57917;51.380;-0.176;2023-08-06T13:51:12;101389.66;;;19.19
29701;BMP280;57917;51.380;-0.176;2023-08-06T13:57:00;101382.47;;;19.95
29701;BMP280;57917;51.380;-0.176;2023-08-06T14:02:50;101383.00;;;20.38
29701;BMP280;57917;51.380;-0.176;2023-08-06T14:08:37;101374.53;;;19.98
29701;BMP280;57917;51.380;-0.176;2023-08-06T14:14:24;101374.66;;;19.27
29701;BMP280;57917;51.380;-0.176;2023-08-06T14:20:13;101378.28;;;20.14
29701;BMP280;57917;51.380;-0.176;2023-08-06T14:26:00;101377.09;;;20.44
29701;BMP280;57917;51.380;-0.176;2023-08-06T14:32:04;101375.47;;;20.02
29701;BMP280;57917;51.380;-0.176;2023-08-06T14:37:55;101379.41;;;20.05
29701;BMP280;57917;51.380;-0.176;2023-08-06T14:43:55;101395.09;;;20.23
29701;BMP280;57917;51.380;-0.176;2023-08-06T14:49:42;101389.81;;;20.76
29701;BMP280;57917;51.380;-0.176;2023-08-06T14:55:43;101391.16;;;20.91
29701;BMP280;57917;51.380;-0.176;2023-08-06T15:01:35;101389.31;;;20.42
29701;BMP280;57917;51.380;-0.176;2023-08-06T15:07:29;101383.31;;;20.77
29701;BMP280;57917;51.380;-0.176;2023-08-06T15:13:19;101378.84;;;20.81
29701;BMP280;57917;51.380;-0.176;2023-08-06T15:19:31;101359.88;;;21.10
29701;BMP280;57917;51.380;-0.176;2023-08-06T15:25:31;101364.75;;;21.29
29701;BMP280;57917;51.380;-0.176;2023-08-06T15:31:22;101368.59;;;21.40
29701;BMP280;57917;51.380;-0.176;2023-08-06T15:37:10;101373.97;;;20.95
29701;BMP280;57917;51.380;-0.176;2023-08-06T15:43:07;101383.16;;;20.62
29701;BMP280;57917;51.380;-0.176;2023-08-06T15:48:56;101366.41;;;20.36
29701;BMP280;57917;51.380;-0.176;2023-08-06T15:54:52;101382.06;;;20.13
29701;BMP280;57917;51.380;-0.176;2023-08-06T16:01:02;101394.00;;;19.66
29701;BMP280;57917;51.380;-0.176;2023-08-06T16:06:49;101392.34;;;19.74
29701;BMP280;57917;51.380;-0.176;2023-08-06T16:12:36;101393.06;;;19.62
29701;BMP280;57917;51.380;-0.176;2023-08-06T16:18:23;101393.47;;;19.73
29701;BMP280;57917;51.380;-0.176;2023-08-06T16:24:10;101384.78;;;19.76
29701;BMP280;57917;51.380;-0.176;2023-08-06T16:29:58;101396.50;;;19.71
29701;BMP280;57917;51.380;-0.176;2023-08-06T16:35:51;101400.13;;;19.67
29701;BMP280;57917;51.380;-0.176;2023-08-06T16:41:37;101404.06;;;19.69
29701;BMP280;57917;51.380;-0.176;2023-08-06T16:47:24;101398.09;;;19.72
29701;BMP280;57917;51.380;-0.176;2023-08-06T16:53:11;101400.53;;;20.15
29701;BMP280;57917;51.380;-0.176;2023-08-06T16:58:59;101414.44;;;20.17
29701;BMP280;57917;51.380;-0.176;2023-08-06T17:04:47;101416.16;;;20.21
29701;BMP280;57917;51.380;-0.176;2023-08-06T17:10:34;101423.00;;;20.10
29701;BMP280;57917;51.380;-0.176;2023-08-06T17:16:21;101424.16;;;20.09
29701;BMP280;57917;51.380;-0.176;2023-08-06T17:22:08;101422.06;;;20.06
29701;BMP280;57917;51.380;-0.176;2023-08-06T17:27:56;101417.59;;;19.81
29701;BMP280;57917;51.380;-0.176;2023-08-06T17:33:43;101423.06;;;19.64
29701;BMP280;57917;51.380;-0.176;2023-08-06T17:39:32;101431.53;;;19.83
29701;BMP280;57917;51.380;-0.176;2023-08-06T17:45:21;101425.63;;;19.90
29701;BMP280;57917;51.380;-0.176;2023-08-06T17:51:10;101422.47;;;19.50
29701;BMP280;57917;51.380;-0.176;2023-08-06T17:56:58;101434.81;;;19.26
29701;BMP280;57917;51.380;-0.176;2023-08-06T18:02:46;101441.44;;;18.94
29701;BMP280;57917;51.380;-0.176;2023-08-06T18:08:33;101449.34;;;19.08
29701;BMP280;57917;51.380;-0.176;2023-08-06T18:14:19;101455.19;;;19.01
29701;BMP280;57917;51.380;-0.176;2023-08-06T18:20:07;101460.09;;;18.99
29701;BMP280;57917;51.380;-0.176;2023-08-06T18:25:54;101467.81;;;19.35
29701;BMP280;57917;51.380;-0.176;2023-08-06T18:31:43;101466.56;;;19.24
29701;BMP280;57917;51.380;-0.176;2023-08-06T18:37:30;101475.59;;;19.02
29701;BMP280;57917;51.380;-0.176;2023-08-06T18:43:53;101479.50;;;19.05
29701;BMP280;57917;51.380;-0.176;2023-08-06T18:49:41;101465.13;;;18.92
29701;BMP280;57917;51.380;-0.176;2023-08-06T18:55:30;101489.88;;;18.81
29701;BMP280;57917;51.380;-0.176;2023-08-06T19:01:25;101488.91;;;18.59
29701;BMP280;57917;51.380;-0.176;2023-08-06T19:07:13;101488.22;;;18.45
29701;BMP280;57917;51.380;-0.176;2023-08-06T19:13:06;101498.50;;;18.21
29701;BMP280;57917;51.380;-0.176;2023-08-06T19:18:54;101513.16;;;18.15
29701;BMP280;57917;51.380;-0.176;2023-08-06T19:24:42;101507.09;;;18.32
29701;BMP280;57917;51.380;-0.176;2023-08-06T19:30:29;101512.31;;;18.37
29701;BMP280;57917;51.380;-0.176;2023-08-06T19:36:18;101504.66;;;18.44
29701;BMP280;57917;51.380;-0.176;2023-08-06T19:42:05;101522.78;;;18.47
29701;BMP280;57917;51.380;-0.176;2023-08-06T19:47:52;101533.84;;;18.54
29701;BMP280;57917;51.380;-0.176;2023-08-06T19:53:43;101529.25;;;18.46
29701;BMP280;57917;51.380;-0.176;2023-08-06T19:59:30;101542.84;;;18.58
29701;BMP280;57917;51.380;-0.176;2023-08-06T20:05:16;101536.56;;;18.32
29701;BMP280;57917;51.380;-0.176;2023-08-06T20:11:04;101543.81;;;18.23
29701;BMP280;57917;51.380;-0.176;2023-08-06T20:16:52;101548.06;;;17.80
29701;BMP280;57917;51.380;-0.176;2023-08-06T20:22:39;101552.66;;;17.79
29701;BMP280;57917;51.380;-0.176;2023-08-06T20:28:28;101557.06;;;17.84
29701;BMP280;57917;51.380;-0.176;2023-08-06T20:34:17;101564.19;;;17.88
29701;BMP280;57917;51.380;-0.176;2023-08-06T21:02:38;101599.69;;;17.72
29701;BMP280;57917;51.380;-0.176;2023-08-06T21:09:22;101600.97;;;17.52
29701;BMP280;57917;51.380;-0.176;2023-08-06T21:16:07;101605.34;;;17.48
29701;BMP280;57917;51.380;-0.176;2023-08-06T21:22:21;101614.75;;;17.46
29701;BMP280;57917;51.380;-0.176;2023-08-06T21:28:33;101617.94;;;17.34
29701;BMP280;57917;51.380;-0.176;2023-08-06T21:34:52;101625.38;;;17.24
29701;BMP280;57917;51.380;-0.176;2023-08-06T22:05:46;101636.66;;;17.07
29701;BMP280;57917;51.380;-0.176;2023-08-06T22:11:44;101632.19;;;17.16
29701;BMP280;57917;51.380;-0.176;2023-08-06T22:18:09;101634.31;;;17.06
29701;BMP280;57917;51.380;-0.176;2023-08-06T22:24:00;101633.78;;;17.04
29701;BMP280;57917;51.380;-0.176;2023-08-06T22:30:27;101638.44;;;16.85
29701;BMP280;57917;51.380;-0.176;2023-08-06T22:43:12;101648.78;;;16.59
29701;BMP280;57917;51.380;-0.176;2023-08-06T22:49:04;101655.97;;;16.26
29701;BMP280;57917;51.380;-0.176;2023-08-06T22:54:57;101672.09;;;16.21
29701;BMP280;57917;51.380;-0.176;2023-08-06T23:01:00;101673.31;;;16.10
29701;BMP280;57917;51.380;-0.176;2023-08-06T23:06:49;101676.03;;;16.05
29701;BMP280;57917;51.380;-0.176;2023-08-06T23:12:39;101663.50;;;15.87
29701;BMP280;57917;51.380;-0.176;2023-08-06T23:32:27;101664.31;;;15.64
29701;BMP280;57917;51.380;-0.176;2023-08-06T23:38:14;101682.56;;;15.57
29701;BMP280;57917;51.380;-0.176;2023-08-06T23:51:00;101683.50;;;15.19
29701;BMP280;57917;51.380;-0.176;2023-08-06T23:56:50;101678.53;;;15.08
